sensor_id;sensor_type;location;lat;lon;timestamp;temperature;humidity
75738;DHT22;64356;45.638;13.764;2023-09-19T00:00:42;25.50;71.40
75738;DHT22;64356;45.638;13.764;2023-09-19T00:03:09;25.50;71.50
75738;DHT22;64356;45.638;13.764;2023-09-19T00:05:37;25.50;71.50
75738;DHT22;64356;45.638;13.764;2023-09-19T00:08:04;25.50;71.50
75738;DHT22;64356;45.638;13.764;2023-09-19T00:10:31;25.50;71.50
75738;DHT22;64356;45.638;13.764;2023-09-19T00:12:58;25.50;71.60
75738;DHT22;64356;45.638;13.764;2023-09-19T00:15:35;25.50;71.60
75738;DHT22;64356;45.638;13.764;2023-09-19T00:18:03;25.50;71.70
75738;DHT22;64356;45.638;13.764;2023-09-19T00:20:30;25.50;71.70
75738;DHT22;64356;45.638;13.764;2023-09-19T00:22:55;25.40;71.70
75738;DHT22;64356;45.638;13.764;2023-09-19T00:25:21;25.50;71.70
75738;DHT22;64356;45.638;13.764;2023-09-19T00:27:48;25.50;71.60
75738;DHT22;64356;45.638;13.764;2023-09-19T00:30:15;25.50;71.70
75738;DHT22;64356;45.638;13.764;2023-09-19T00:32:50;25.50;71.70
75738;DHT22;64356;45.638;13.764;2023-09-19T00:35:22;25.50;71.70
75738;DHT22;64356;45.638;13.764;2023-09-19T00:37:52;25.50;71.70
75738;DHT22;64356;45.638;13.764;2023-09-19T00:40:17;25.50;71.70
75738;DHT22;64356;45.638;13.764;2023-09-19T00:42:44;25.50;71.70
75738;DHT22;64356;45.638;13.764;2023-09-19T00:45:12;25.50;71.70
75738;DHT22;64356;45.638;13.764;2023-09-19T00:47:44;25.50;71.70
75738;DHT22;64356;45.638;13.764;2023-09-19T00:50:13;25.50;71.70
75738;DHT22;64356;45.638;13.764;2023-09-19T00:52:40;25.40;71.70
75738;DHT22;64356;45.638;13.764;2023-09-19T00:55:11;25.50;71.90
75738;DHT22;64356;45.638;13.764;2023-09-19T00:57:39;25.50;72.40
75738;DHT22;64356;45.638;13.764;2023-09-19T01:00:06;25.40;71.90
75738;DHT22;64356;45.638;13.764;2023-09-19T01:02:34;25.40;71.90
75738;DHT22;64356;45.638;13.764;2023-09-19T01:05:00;25.50;72.00
75738;DHT22;64356;45.638;13.764;2023-09-19T01:07:30;25.40;72.30
75738;DHT22;64356;45.638;13.764;2023-09-19T01:10:03;25.40;72.10
75738;DHT22;64356;45.638;13.764;2023-09-19T01:21:11;25.40;72.10
75738;DHT22;64356;45.638;13.764;2023-09-19T01:27:06;25.40;72.20
75738;DHT22;64356;45.638;13.764;2023-09-19T01:29:45;25.50;72.30
75738;DHT22;64356;45.638;13.764;2023-09-19T01:32:17;25.40;72.20
75738;DHT22;64356;45.638;13.764;2023-09-19T01:34:55;25.40;72.20
75738;DHT22;64356;45.638;13.764;2023-09-19T01:37:23;25.50;72.40
75738;DHT22;64356;45.638;13.764;2023-09-19T01:39:57;25.40;72.30
75738;DHT22;64356;45.638;13.764;2023-09-19T01:45:57;25.40;72.40
75738;DHT22;64356;45.638;13.764;2023-09-19T01:51:05;25.40;72.40
75738;DHT22;64356;45.638;13.764;2023-09-19T01:53:50;25.40;72.40
75738;DHT22;64356;45.638;13.764;2023-09-19T01:56:25;25.40;72.50
75738;DHT22;64356;45.638;13.764;2023-09-19T01:58:56;25.40;72.50
75738;DHT22;64356;45.638;13.764;2023-09-19T02:01:26;25.40;72.50
75738;DHT22;64356;45.638;13.764;2023-09-19T02:03:53;25.40;72.60
75738;DHT22;64356;45.638;13.764;2023-09-19T02:06:19;25.40;72.60
75738;DHT22;64356;45.638;13.764;2023-09-19T02:08:46;25.40;72.60
75738;DHT22;64356;45.638;13.764;2023-09-19T02:11:13;25.40;72.60
75738;DHT22;64356;45.638;13.764;2023-09-19T02:13:39;25.40;72.60
75738;DHT22;64356;45.638;13.764;2023-09-19T02:16:06;25.40;72.60
75738;DHT22;64356;45.638;13.764;2023-09-19T02:18:32;25.40;72.70
75738;DHT22;64356;45.638;13.764;2023-09-19T02:21:01;25.40;72.70
75738;DHT22;64356;45.638;13.764;2023-09-19T02:23:27;25.40;72.80
75738;DHT22;64356;45.638;13.764;2023-09-19T02:25:53;25.40;72.90
75738;DHT22;64356;45.638;13.764;2023-09-19T02:28:19;25.40;72.90
75738;DHT22;64356;45.638;13.764;2023-09-19T02:30:48;25.40;72.90
75738;DHT22;64356;45.638;13.764;2023-09-19T02:33:15;25.40;72.90
75738;DHT22;64356;45.638;13.764;2023-09-19T02:35:42;25.40;73.00
75738;DHT22;64356;45.638;13.764;2023-09-19T02:38:08;25.40;73.00
75738;DHT22;64356;45.638;13.764;2023-09-19T02:40:37;25.40;72.90
75738;DHT22;64356;45.638;13.764;2023-09-19T02:43:03;25.40;73.00
75738;DHT22;64356;45.638;13.764;2023-09-19T02:45:29;25.40;73.00
75738;DHT22;64356;45.638;13.764;2023-09-19T02:47:56;25.40;73.10
75738;DHT22;64356;45.638;13.764;2023-09-19T02:50:22;25.40;73.10
75738;DHT22;64356;45.638;13.764;2023-09-19T02:52:48;25.40;73.30
75738;DHT22;64356;45.638;13.764;2023-09-19T02:55:15;25.40;73.50
75738;DHT22;64356;45.638;13.764;2023-09-19T02:57:48;25.40;73.60
75738;DHT22;64356;45.638;13.764;2023-09-19T03:00:16;25.40;73.70
75738;DHT22;64356;45.638;13.764;2023-09-19T03:02:42;25.40;73.70
75738;DHT22;64356;45.638;13.764;2023-09-19T03:05:08;25.40;73.70
75738;DHT22;64356;45.638;13.764;2023-09-19T03:07:37;25.40;73.70
75738;DHT22;64356;45.638;13.764;2023-09-19T03:10:05;25.40;73.70
75738;DHT22;64356;45.638;13.764;2023-09-19T03:12:31;25.40;73.80
75738;DHT22;64356;45.638;13.764;2023-09-19T03:14:57;25.40;73.80
75738;DHT22;64356;45.638;13.764;2023-09-19T03:17:23;25.40;73.80
75738;DHT22;64356;45.638;13.764;2023-09-19T03:19:49;25.40;73.90
75738;DHT22;64356;45.638;13.764;2023-09-19T03:22:15;25.40;74.00
75738;DHT22;64356;45.638;13.764;2023-09-19T03:24:41;25.40;74.00
75738;DHT22;64356;45.638;13.764;2023-09-19T03:27:11;25.40;73.80
75738;DHT22;64356;45.638;13.764;2023-09-19T03:29:39;25.40;73.70
75738;DHT22;64356;45.638;13.764;2023-09-19T03:32:05;25.40;74.00
75738;DHT22;64356;45.638;13.764;2023-09-19T03:34:31;25.40;74.00
75738;DHT22;64356;45.638;13.764;2023-09-19T03:36:57;25.40;74.00
75738;DHT22;64356;45.638;13.764;2023-09-19T03:39:22;25.40;73.90
75738;DHT22;64356;45.638;13.764;2023-09-19T03:41:48;25.40;74.00
75738;DHT22;64356;45.638;13.764;2023-09-19T03:44:15;25.40;74.20
75738;DHT22;64356;45.638;13.764;2023-09-19T03:46:40;25.40;74.20
75738;DHT22;64356;45.638;13.764;2023-09-19T03:49:06;25.40;74.20
75738;DHT22;64356;45.638;13.764;2023-09-19T03:51:32;25.40;74.20
75738;DHT22;64356;45.638;13.764;2023-09-19T03:53:59;25.40;74.20
75738;DHT22;64356;45.638;13.764;2023-09-19T03:56:25;25.40;74.30
75738;DHT22;64356;45.638;13.764;2023-09-19T03:58:51;25.40;74.40
75738;DHT22;64356;45.638;13.764;2023-09-19T04:01:16;25.40;74.30
75738;DHT22;64356;45.638;13.764;2023-09-19T04:03:44;25.40;74.30
75738;DHT22;64356;45.638;13.764;2023-09-19T04:06:16;25.40;74.30
75738;DHT22;64356;45.638;13.764;2023-09-19T04:08:43;25.40;74.20
75738;DHT22;64356;45.638;13.764;2023-09-19T04:11:10;25.40;74.30
75738;DHT22;64356;45.638;13.764;2023-09-19T04:13:36;25.40;74.20
75738;DHT22;64356;45.638;13.764;2023-09-19T04:16:02;25.40;74.20
75738;DHT22;64356;45.638;13.764;2023-09-19T04:18:32;25.40;74.20
75738;DHT22;64356;45.638;13.764;2023-09-19T04:20:59;25.40;74.20
75738;DHT22;64356;45.638;13.764;2023-09-19T04:23:28;25.40;74.20
75738;DHT22;64356;45.638;13.764;2023-09-19T04:25:54;25.40;74.20
75738;DHT22;64356;45.638;13.764;2023-09-19T04:28:19;25.40;74.80
75738;DHT22;64356;45.638;13.764;2023-09-19T04:30:46;25.40;74.30
75738;DHT22;64356;45.638;13.764;2023-09-19T04:33:12;25.40;74.30
75738;DHT22;64356;45.638;13.764;2023-09-19T04:35:40;25.40;74.30
75738;DHT22;64356;45.638;13.764;2023-09-19T04:38:08;25.40;74.40
75738;DHT22;64356;45.638;13.764;2023-09-19T04:40:34;25.40;74.30
75738;DHT22;64356;45.638;13.764;2023-09-19T04:43:00;25.40;74.40
75738;DHT22;64356;45.638;13.764;2023-09-19T04:45:27;25.40;74.40
75738;DHT22;64356;45.638;13.764;2023-09-19T04:47:54;25.40;74.40
75738;DHT22;64356;45.638;13.764;2023-09-19T04:50:20;25.40;74.40
75738;DHT22;64356;45.638;13.764;2023-09-19T04:52:50;25.40;74.40
75738;DHT22;64356;45.638;13.764;2023-09-19T04:55:17;25.40;74.30
75738;DHT22;64356;45.638;13.764;2023-09-19T04:57:45;25.40;74.30
75738;DHT22;64356;45.638;13.764;2023-09-19T05:00:13;25.40;74.30
75738;DHT22;64356;45.638;13.764;2023-09-19T05:02:43;25.40;74.20
75738;DHT22;64356;45.638;13.764;2023-09-19T05:05:09;25.40;74.30
75738;DHT22;64356;45.638;13.764;2023-09-19T05:07:42;25.40;74.20
75738;DHT22;64356;45.638;13.764;2023-09-19T05:10:08;25.40;74.10
75738;DHT22;64356;45.638;13.764;2023-09-19T05:12:35;25.40;74.10
75738;DHT22;64356;45.638;13.764;2023-09-19T05:15:05;25.40;74.10
75738;DHT22;64356;45.638;13.764;2023-09-19T05:17:35;25.40;74.00
75738;DHT22;64356;45.638;13.764;2023-09-19T05:20:01;25.40;74.00
75738;DHT22;64356;45.638;13.764;2023-09-19T05:22:41;25.40;74.00
75738;DHT22;64356;45.638;13.764;2023-09-19T05:25:11;25.40;74.00
75738;DHT22;64356;45.638;13.764;2023-09-19T05:27:42;25.40;73.80
75738;DHT22;64356;45.638;13.764;2023-09-19T05:30:09;25.40;73.80
75738;DHT22;64356;45.638;13.764;2023-09-19T05:32:34;25.40;73.70
75738;DHT22;64356;45.638;13.764;2023-09-19T05:35:00;25.40;73.50
75738;DHT22;64356;45.638;13.764;2023-09-19T05:37:26;25.40;73.40
75738;DHT22;64356;45.638;13.764;2023-09-19T05:39:52;25.40;73.70
75738;DHT22;64356;45.638;13.764;2023-09-19T05:42:19;25.40;73.60
75738;DHT22;64356;45.638;13.764;2023-09-19T05:44:44;25.40;73.90
75738;DHT22;64356;45.638;13.764;2023-09-19T05:47:10;25.40;74.00
75738;DHT22;64356;45.638;13.764;2023-09-19T05:49:36;25.40;73.90
75738;DHT22;64356;45.638;13.764;2023-09-19T05:52:05;25.50;74.00
75738;DHT22;64356;45.638;13.764;2023-09-19T05:54:32;25.50;74.20
75738;DHT22;64356;45.638;13.764;2023-09-19T05:57:02;25.50;74.10
75738;DHT22;64356;45.638;13.764;2023-09-19T05:59:28;25.60;74.40
75738;DHT22;64356;45.638;13.764;2023-09-19T06:01:54;25.60;74.50
75738;DHT22;64356;45.638;13.764;2023-09-19T06:04:20;25.60;74.50
75738;DHT22;64356;45.638;13.764;2023-09-19T06:06:47;25.70;74.40
75738;DHT22;64356;45.638;13.764;2023-09-19T06:09:14;25.60;73.70
75738;DHT22;64356;45.638;13.764;2023-09-19T06:11:43;25.60;73.60
75738;DHT22;64356;45.638;13.764;2023-09-19T06:14:08;25.60;73.70
75738;DHT22;64356;45.638;13.764;2023-09-19T06:16:36;25.60;73.70
75738;DHT22;64356;45.638;13.764;2023-09-19T06:19:03;25.60;73.90
75738;DHT22;64356;45.638;13.764;2023-09-19T06:21:32;25.60;73.90
75738;DHT22;64356;45.638;13.764;2023-09-19T06:23:57;25.60;73.80
75738;DHT22;64356;45.638;13.764;2023-09-19T06:26:24;25.50;73.70
75738;DHT22;64356;45.638;13.764;2023-09-19T06:28:52;25.60;73.60
75738;DHT22;64356;45.638;13.764;2023-09-19T06:31:18;25.60;73.90
75738;DHT22;64356;45.638;13.764;2023-09-19T06:33:43;25.60;73.80
75738;DHT22;64356;45.638;13.764;2023-09-19T06:36:09;25.60;73.80
75738;DHT22;64356;45.638;13.764;2023-09-19T06:38:36;25.60;73.90
75738;DHT22;64356;45.638;13.764;2023-09-19T06:41:04;25.60;73.70
75738;DHT22;64356;45.638;13.764;2023-09-19T06:43:31;25.60;73.30
75738;DHT22;64356;45.638;13.764;2023-09-19T06:45:56;25.60;73.10
75738;DHT22;64356;45.638;13.764;2023-09-19T06:48:23;25.60;73.10
75738;DHT22;64356;45.638;13.764;2023-09-19T06:50:56;25.60;73.00
75738;DHT22;64356;45.638;13.764;2023-09-19T06:53:24;25.60;72.50
75738;DHT22;64356;45.638;13.764;2023-09-19T06:55:52;25.60;72.70
75738;DHT22;64356;45.638;13.764;2023-09-19T06:58:19;25.60;72.60
75738;DHT22;64356;45.638;13.764;2023-09-19T07:00:45;25.70;72.40
75738;DHT22;64356;45.638;13.764;2023-09-19T07:03:47;25.70;72.20
75738;DHT22;64356;45.638;13.764;2023-09-19T07:10:38;25.80;71.40
75738;DHT22;64356;45.638;13.764;2023-09-19T07:13:07;25.80;71.10
75738;DHT22;64356;45.638;13.764;2023-09-19T07:15:35;25.90;71.00
75738;DHT22;64356;45.638;13.764;2023-09-19T07:18:26;25.90;70.90
75738;DHT22;64356;45.638;13.764;2023-09-19T07:20:57;25.90;70.60
75738;DHT22;64356;45.638;13.764;2023-09-19T07:23:27;25.90;70.70
75738;DHT22;64356;45.638;13.764;2023-09-19T07:25:56;25.90;70.80
75738;DHT22;64356;45.638;13.764;2023-09-19T07:28:22;26.00;70.80
75738;DHT22;64356;45.638;13.764;2023-09-19T07:30:48;26.00;70.70
75738;DHT22;64356;45.638;13.764;2023-09-19T07:33:14;26.10;70.30
75738;DHT22;64356;45.638;13.764;2023-09-19T07:35:40;26.10;69.90
75738;DHT22;64356;45.638;13.764;2023-09-19T07:38:06;26.20;69.70
75738;DHT22;64356;45.638;13.764;2023-09-19T07:40:33;26.20;69.10
75738;DHT22;64356;45.638;13.764;2023-09-19T07:42:59;26.20;69.20
75738;DHT22;64356;45.638;13.764;2023-09-19T07:45:28;26.20;68.80
75738;DHT22;64356;45.638;13.764;2023-09-19T07:47:56;26.30;69.00
75738;DHT22;64356;45.638;13.764;2023-09-19T07:50:22;26.30;69.10
75738;DHT22;64356;45.638;13.764;2023-09-19T07:52:49;26.40;68.30
75738;DHT22;64356;45.638;13.764;2023-09-19T07:55:19;26.40;68.60
75738;DHT22;64356;45.638;13.764;2023-09-19T07:57:48;26.40;68.30
75738;DHT22;64356;45.638;13.764;2023-09-19T08:00:14;26.40;68.40
75738;DHT22;64356;45.638;13.764;2023-09-19T08:02:41;26.40;68.10
75738;DHT22;64356;45.638;13.764;2023-09-19T08:05:08;26.40;67.10
75738;DHT22;64356;45.638;13.764;2023-09-19T08:07:40;26.40;67.30
75738;DHT22;64356;45.638;13.764;2023-09-19T08:10:07;26.40;67.50
75738;DHT22;64356;45.638;13.764;2023-09-19T08:12:36;26.40;68.10
75738;DHT22;64356;45.638;13.764;2023-09-19T08:15:05;26.40;68.10
75738;DHT22;64356;45.638;13.764;2023-09-19T08:17:34;26.40;68.30
75738;DHT22;64356;45.638;13.764;2023-09-19T08:20:01;26.40;68.00
75738;DHT22;64356;45.638;13.764;2023-09-19T08:22:28;26.40;68.20
75738;DHT22;64356;45.638;13.764;2023-09-19T08:24:54;26.50;68.20
75738;DHT22;64356;45.638;13.764;2023-09-19T08:27:22;26.50;68.00
75738;DHT22;64356;45.638;13.764;2023-09-19T08:29:55;26.50;67.60
75738;DHT22;64356;45.638;13.764;2023-09-19T08:32:21;26.50;67.00
75738;DHT22;64356;45.638;13.764;2023-09-19T08:34:50;26.60;66.50
75738;DHT22;64356;45.638;13.764;2023-09-19T08:37:15;26.60;66.60
75738;DHT22;64356;45.638;13.764;2023-09-19T08:39:44;26.60;66.00
75738;DHT22;64356;45.638;13.764;2023-09-19T08:42:10;26.60;65.40
75738;DHT22;64356;45.638;13.764;2023-09-19T08:44:37;26.70;65.40
75738;DHT22;64356;45.638;13.764;2023-09-19T08:47:15;26.70;65.60
75738;DHT22;64356;45.638;13.764;2023-09-19T08:52:32;26.60;66.60
75738;DHT22;64356;45.638;13.764;2023-09-19T08:55:02;26.70;66.70
75738;DHT22;64356;45.638;13.764;2023-09-19T08:57:36;26.70;66.40
75738;DHT22;64356;45.638;13.764;2023-09-19T09:00:08;26.70;65.80
75738;DHT22;64356;45.638;13.764;2023-09-19T09:02:40;26.70;65.80
75738;DHT22;64356;45.638;13.764;2023-09-19T09:05:09;26.70;66.40
75738;DHT22;64356;45.638;13.764;2023-09-19T09:07:38;26.70;66.70
75738;DHT22;64356;45.638;13.764;2023-09-19T09:10:04;26.70;66.70
75738;DHT22;64356;45.638;13.764;2023-09-19T09:12:30;26.70;66.40
75738;DHT22;64356;45.638;13.764;2023-09-19T09:14:56;26.80;66.20
75738;DHT22;64356;45.638;13.764;2023-09-19T09:17:23;26.80;66.50
75738;DHT22;64356;45.638;13.764;2023-09-19T09:19:53;26.80;66.60
75738;DHT22;64356;45.638;13.764;2023-09-19T09:22:19;26.80;67.00
75738;DHT22;64356;45.638;13.764;2023-09-19T09:24:54;26.80;67.00
75738;DHT22;64356;45.638;13.764;2023-09-19T09:27:20;26.80;68.00
75738;DHT22;64356;45.638;13.764;2023-09-19T09:29:49;26.90;67.80
75738;DHT22;64356;45.638;13.764;2023-09-19T09:34:53;26.90;68.00
75738;DHT22;64356;45.638;13.764;2023-09-19T09:37:20;26.90;68.10
75738;DHT22;64356;45.638;13.764;2023-09-19T09:39:57;26.80;68.40
75738;DHT22;64356;45.638;13.764;2023-09-19T09:42:36;26.90;68.90
75738;DHT22;64356;45.638;13.764;2023-09-19T09:48:03;26.90;70.10
75738;DHT22;64356;45.638;13.764;2023-09-19T09:50:34;26.80;69.30
75738;DHT22;64356;45.638;13.764;2023-09-19T09:53:21;26.80;68.80
75738;DHT22;64356;45.638;13.764;2023-09-19T09:56:06;26.70;68.70
75738;DHT22;64356;45.638;13.764;2023-09-19T09:58:37;26.60;68.90
75738;DHT22;64356;45.638;13.764;2023-09-19T10:01:04;26.50;70.40
75738;DHT22;64356;45.638;13.764;2023-09-19T10:03:42;26.50;70.60
75738;DHT22;64356;45.638;13.764;2023-09-19T10:07:03;26.50;72.50
75738;DHT22;64356;45.638;13.764;2023-09-19T10:10:10;26.50;71.70
75738;DHT22;64356;45.638;13.764;2023-09-19T10:12:47;26.50;65.90
75738;DHT22;64356;45.638;13.764;2023-09-19T10:15:15;26.40;60.50
75738;DHT22;64356;45.638;13.764;2023-09-19T10:17:45;26.40;58.80
75738;DHT22;64356;45.638;13.764;2023-09-19T10:20:17;26.30;56.90
75738;DHT22;64356;45.638;13.764;2023-09-19T10:23:00;26.30;56.00
75738;DHT22;64356;45.638;13.764;2023-09-19T10:25:27;26.20;56.30
75738;DHT22;64356;45.638;13.764;2023-09-19T10:28:00;26.20;55.10
75738;DHT22;64356;45.638;13.764;2023-09-19T10:30:29;26.20;56.40
75738;DHT22;64356;45.638;13.764;2023-09-19T10:35:45;26.10;57.40
75738;DHT22;64356;45.638;13.764;2023-09-19T10:38:13;26.10;57.50
75738;DHT22;64356;45.638;13.764;2023-09-19T10:40:40;26.10;56.90
75738;DHT22;64356;45.638;13.764;2023-09-19T10:43:16;26.10;56.20
75738;DHT22;64356;45.638;13.764;2023-09-19T10:45:46;26.10;55.90
75738;DHT22;64356;45.638;13.764;2023-09-19T10:48:15;26.10;54.50
75738;DHT22;64356;45.638;13.764;2023-09-19T10:51:29;26.10;53.30
75738;DHT22;64356;45.638;13.764;2023-09-19T10:53:52;26.10;52.40
75738;DHT22;64356;45.638;13.764;2023-09-19T10:56:26;26.20;53.50
75738;DHT22;64356;45.638;13.764;2023-09-19T10:59:06;26.20;54.70
75738;DHT22;64356;45.638;13.764;2023-09-19T11:04:28;26.40;54.20
75738;DHT22;64356;45.638;13.764;2023-09-19T11:07:08;26.50;54.70
75738;DHT22;64356;45.638;13.764;2023-09-19T11:09:46;26.60;54.10
75738;DHT22;64356;45.638;13.764;2023-09-19T11:15:03;26.80;54.30
75738;DHT22;64356;45.638;13.764;2023-09-19T11:17:41;26.90;54.80
75738;DHT22;64356;45.638;13.764;2023-09-19T11:30:44;27.20;52.90
75738;DHT22;64356;45.638;13.764;2023-09-19T11:36:10;27.30;52.50
75738;DHT22;64356;45.638;13.764;2023-09-19T11:43:53;27.50;51.80
75738;DHT22;64356;45.638;13.764;2023-09-19T11:46:24;27.60;51.80
75738;DHT22;64356;45.638;13.764;2023-09-19T11:48:53;27.60;51.00
75738;DHT22;64356;45.638;13.764;2023-09-19T11:51:20;27.60;50.30
75738;DHT22;64356;45.638;13.764;2023-09-19T11:53:56;27.70;50.50
75738;DHT22;64356;45.638;13.764;2023-09-19T11:56:25;27.70;50.30
75738;DHT22;64356;45.638;13.764;2023-09-19T11:58:55;27.80;49.90
75738;DHT22;64356;45.638;13.764;2023-09-19T12:03:55;27.90;49.70
75738;DHT22;64356;45.638;13.764;2023-09-19T12:06:23;27.90;49.30
75738;DHT22;64356;45.638;13.764;2023-09-19T12:08:49;28.00;49.10
75738;DHT22;64356;45.638;13.764;2023-09-19T12:11:17;28.00;49.20
75738;DHT22;64356;45.638;13.764;2023-09-19T12:13:44;28.00;49.00
75738;DHT22;64356;45.638;13.764;2023-09-19T12:16:15;28.10;49.10
75738;DHT22;64356;45.638;13.764;2023-09-19T12:18:41;28.10;48.70
75738;DHT22;64356;45.638;13.764;2023-09-19T12:21:22;28.20;49.30
75738;DHT22;64356;45.638;13.764;2023-09-19T12:24:05;28.20;48.90
75738;DHT22;64356;45.638;13.764;2023-09-19T12:26:41;28.30;48.50
75738;DHT22;64356;45.638;13.764;2023-09-19T12:29:14;28.30;48.40
75738;DHT22;64356;45.638;13.764;2023-09-19T12:31:54;28.40;48.40
75738;DHT22;64356;45.638;13.764;2023-09-19T12:34:27;28.50;48.10
75738;DHT22;64356;45.638;13.764;2023-09-19T12:39:39;28.60;48.40
75738;DHT22;64356;45.638;13.764;2023-09-19T12:42:10;28.60;48.60
75738;DHT22;64356;45.638;13.764;2023-09-19T12:44:41;28.70;48.70
75738;DHT22;64356;45.638;13.764;2023-09-19T12:47:09;28.70;48.90
75738;DHT22;64356;45.638;13.764;2023-09-19T12:49:35;28.70;49.40
75738;DHT22;64356;45.638;13.764;2023-09-19T12:52:01;28.80;49.60
75738;DHT22;64356;45.638;13.764;2023-09-19T12:54:40;28.70;49.60
75738;DHT22;64356;45.638;13.764;2023-09-19T12:57:08;28.80;49.70
75738;DHT22;64356;45.638;13.764;2023-09-19T12:59:52;28.80;50.00
75738;DHT22;64356;45.638;13.764;2023-09-19T13:02:18;28.80;50.30
75738;DHT22;64356;45.638;13.764;2023-09-19T13:04:52;28.80;50.40
75738;DHT22;64356;45.638;13.764;2023-09-19T13:10:11;28.80;51.00
75738;DHT22;64356;45.638;13.764;2023-09-19T13:12:40;28.80;51.00
75738;DHT22;64356;45.638;13.764;2023-09-19T13:15:10;28.80;51.00
75738;DHT22;64356;45.638;13.764;2023-09-19T13:17:44;28.80;51.40
75738;DHT22;64356;45.638;13.764;2023-09-19T13:20:26;28.70;51.40
75738;DHT22;64356;45.638;13.764;2023-09-19T13:22:54;28.70;51.30
75738;DHT22;64356;45.638;13.764;2023-09-19T13:25:30;28.80;51.40
75738;DHT22;64356;45.638;13.764;2023-09-19T13:27:58;28.80;51.50
75738;DHT22;64356;45.638;13.764;2023-09-19T13:30:28;28.80;51.40
75738;DHT22;64356;45.638;13.764;2023-09-19T13:33:10;28.80;51.50
75738;DHT22;64356;45.638;13.764;2023-09-19T13:35:38;28.80;51.60
75738;DHT22;64356;45.638;13.764;2023-09-19T13:38:05;28.80;51.70
75738;DHT22;64356;45.638;13.764;2023-09-19T13:40:33;28.90;51.60
75738;DHT22;64356;45.638;13.764;2023-09-19T13:43:03;28.90;51.50
75738;DHT22;64356;45.638;13.764;2023-09-19T13:45:29;29.00;51.30
75738;DHT22;64356;45.638;13.764;2023-09-19T13:47:56;29.10;51.40
75738;DHT22;64356;45.638;13.764;2023-09-19T13:50:22;29.10;51.30
75738;DHT22;64356;45.638;13.764;2023-09-19T13:52:54;29.10;51.20
75738;DHT22;64356;45.638;13.764;2023-09-19T13:55:20;29.10;51.10
75738;DHT22;64356;45.638;13.764;2023-09-19T13:57:50;29.20;51.60
75738;DHT22;64356;45.638;13.764;2023-09-19T14:00:18;29.10;51.50
75738;DHT22;64356;45.638;13.764;2023-09-19T14:02:44;29.10;51.20
75738;DHT22;64356;45.638;13.764;2023-09-19T14:05:10;29.00;51.40
75738;DHT22;64356;45.638;13.764;2023-09-19T14:07:41;29.10;51.60
75738;DHT22;64356;45.638;13.764;2023-09-19T14:10:07;29.00;51.50
75738;DHT22;64356;45.638;13.764;2023-09-19T14:12:37;29.00;51.70
75738;DHT22;64356;45.638;13.764;2023-09-19T14:15:06;28.90;51.70
75738;DHT22;64356;45.638;13.764;2023-09-19T14:17:32;28.80;51.90
75738;DHT22;64356;45.638;13.764;2023-09-19T14:19:58;28.70;52.30
75738;DHT22;64356;45.638;13.764;2023-09-19T14:22:24;28.70;53.00
75738;DHT22;64356;45.638;13.764;2023-09-19T14:24:50;28.60;52.90
75738;DHT22;64356;45.638;13.764;2023-09-19T14:27:15;28.60;52.90
75738;DHT22;64356;45.638;13.764;2023-09-19T14:29:41;28.60;53.10
75738;DHT22;64356;45.638;13.764;2023-09-19T14:32:06;28.60;53.10
75738;DHT22;64356;45.638;13.764;2023-09-19T14:34:32;28.50;53.40
75738;DHT22;64356;45.638;13.764;2023-09-19T14:36:58;28.50;53.70
75738;DHT22;64356;45.638;13.764;2023-09-19T14:39:24;28.50;53.70
75738;DHT22;64356;45.638;13.764;2023-09-19T14:41:50;28.50;53.80
75738;DHT22;64356;45.638;13.764;2023-09-19T14:44:16;28.50;53.80
75738;DHT22;64356;45.638;13.764;2023-09-19T14:46:42;28.50;53.90
75738;DHT22;64356;45.638;13.764;2023-09-19T14:49:10;28.40;53.90
75738;DHT22;64356;45.638;13.764;2023-09-19T14:51:37;28.40;54.30
75738;DHT22;64356;45.638;13.764;2023-09-19T14:54:05;28.40;54.20
75738;DHT22;64356;45.638;13.764;2023-09-19T14:56:32;28.40;54.20
75738;DHT22;64356;45.638;13.764;2023-09-19T14:58:58;28.30;54.40
75738;DHT22;64356;45.638;13.764;2023-09-19T15:01:24;28.30;54.40
75738;DHT22;64356;45.638;13.764;2023-09-19T15:03:49;28.30;54.60
75738;DHT22;64356;45.638;13.764;2023-09-19T15:06:15;28.20;54.60
75738;DHT22;64356;45.638;13.764;2023-09-19T15:08:43;28.20;54.60
75738;DHT22;64356;45.638;13.764;2023-09-19T15:11:18;28.20;54.80
75738;DHT22;64356;45.638;13.764;2023-09-19T15:13:45;28.10;54.90
75738;DHT22;64356;45.638;13.764;2023-09-19T15:16:12;28.10;55.00
75738;DHT22;64356;45.638;13.764;2023-09-19T15:18:40;28.10;55.10
75738;DHT22;64356;45.638;13.764;2023-09-19T15:21:08;28.00;55.40
75738;DHT22;64356;45.638;13.764;2023-09-19T15:23:35;28.00;55.70
75738;DHT22;64356;45.638;13.764;2023-09-19T15:26:05;27.90;55.50
75738;DHT22;64356;45.638;13.764;2023-09-19T15:28:32;27.90;55.80
75738;DHT22;64356;45.638;13.764;2023-09-19T15:31:00;27.90;56.10
75738;DHT22;64356;45.638;13.764;2023-09-19T15:33:26;27.80;56.20
75738;DHT22;64356;45.638;13.764;2023-09-19T15:36:01;27.80;56.30
75738;DHT22;64356;45.638;13.764;2023-09-19T15:38:27;27.80;56.30
75738;DHT22;64356;45.638;13.764;2023-09-19T15:40:53;27.70;56.10
75738;DHT22;64356;45.638;13.764;2023-09-19T15:43:19;27.70;56.50
75738;DHT22;64356;45.638;13.764;2023-09-19T15:45:47;27.70;56.80
75738;DHT22;64356;45.638;13.764;2023-09-19T15:48:14;27.60;56.60
75738;DHT22;64356;45.638;13.764;2023-09-19T15:50:39;27.70;56.50
75738;DHT22;64356;45.638;13.764;2023-09-19T15:53:07;27.60;56.70
75738;DHT22;64356;45.638;13.764;2023-09-19T15:55:39;27.60;56.60
75738;DHT22;64356;45.638;13.764;2023-09-19T15:58:08;27.60;56.70
75738;DHT22;64356;45.638;13.764;2023-09-19T16:00:34;27.60;57.00
75738;DHT22;64356;45.638;13.764;2023-09-19T16:03:00;27.50;57.10
75738;DHT22;64356;45.638;13.764;2023-09-19T16:05:26;27.40;57.10
75738;DHT22;64356;45.638;13.764;2023-09-19T16:07:52;27.50;57.50
75738;DHT22;64356;45.638;13.764;2023-09-19T16:10:18;27.50;57.30
75738;DHT22;64356;45.638;13.764;2023-09-19T16:12:44;27.50;57.20
75738;DHT22;64356;45.638;13.764;2023-09-19T16:15:09;27.50;57.60
75738;DHT22;64356;45.638;13.764;2023-09-19T16:17:39;27.50;57.60
75738;DHT22;64356;45.638;13.764;2023-09-19T16:20:06;27.40;57.60
75738;DHT22;64356;45.638;13.764;2023-09-19T16:22:38;27.40;57.90
75738;DHT22;64356;45.638;13.764;2023-09-19T16:25:05;27.30;58.10
75738;DHT22;64356;45.638;13.764;2023-09-19T16:27:31;27.30;58.20
75738;DHT22;64356;45.638;13.764;2023-09-19T16:29:57;27.30;58.30
75738;DHT22;64356;45.638;13.764;2023-09-19T16:32:23;27.30;58.40